Portada
METAR-TAF:

METAR-TAF

Aeroports :

Brighton, Anglaterra

latitud: 50-50N, longitud: 000-17W, altitud: 2 m

Observació

L'informe es va fer fa 25 minuts, a les 09:50 UTC
Vent 4 kt del Nord/Nord-Oest
Temperatura 6°C
Humitat 93%
Pressió 1023 hPa
Visibilitat: 3000 m
Escasses núvols a una alçada de 600 ft
Cel ennuvolat a una alçada de 2600 ft
calitja

METAR: EGKA 240950Z 34004KT 3000 HZ FEW006 BKN026 06/05 Q1023

Hora: 10:15 (10:15 UTC)

Pronòstic

L'informe es va fer fa 2 hores i 14 minuts, a les 08:01 UTC
Pronòstic vàlid del 24 a les 09 UTC al 24 a les 18 UTC
Vent 4 kt amb direcció variable
Visibilitat 10 km o més
Escasses núvols a una alçada de 700 ft
Cel ennuvolat a una alçada de 1600 ft
Probabilitat 30%
l' 24 a les 09 UTC al 24 a les 18 UTC
Visibilitat: 4000 m
Cel ennuvolat a una alçada de 700 ft
boirina

TAF: EGKA 240801Z 2409/2418 VRB04KT 9999 FEW007 BKN016 PROB30 2409/2418 4000 BR BKN007

Observacions i pronòstics meteorològics de més de 4000 aeroports (METAR i TAF).

Les estacions disponibles són els punts grocs i vermells al mapa.

Posi el ratolí al punt desitjat per veure el nom de l'estació.

Feu clic per veure les observacions i els pronòstics meteorològics.

Per canviar el mapa: feu clic els botons verds amb una creu de color negre per apropar; al botó verd amb un guió per allunyar la imatge; o en les fletxes verdes per a mapes adjacents.


METAR-TAF: